sensor_id;sensor_type;location;lat;lon;timestamp;P1;durP1;ratioP1;P2;durP2;ratioP2
50417;SDS011;36346;48.280;14.292;2023-03-01T00:01:29;26.59;;;26.24;;
50417;SDS011;36346;48.280;14.292;2023-03-01T00:03:58;26.65;;;26.31;;
50417;SDS011;36346;48.280;14.292;2023-03-01T00:06:26;26.19;;;26.01;;
50417;SDS011;36346;48.280;14.292;2023-03-01T00:08:55;26.65;;;26.27;;
50417;SDS011;36346;48.280;14.292;2023-03-01T00:11:24;26.50;;;26.10;;
50417;SDS011;36346;48.280;14.292;2023-03-01T00:13:56;26.28;;;26.01;;
50417;SDS011;36346;48.280;14.292;2023-03-01T00:16:27;26.82;;;26.49;;
50417;SDS011;36346;48.280;14.292;2023-03-01T00:18:58;27.38;;;27.00;;
50417;SDS011;36346;48.280;14.292;2023-03-01T00:21:26;26.86;;;26.61;;
50417;SDS011;36346;48.280;14.292;2023-03-01T00:23:55;26.21;;;25.91;;
50417;SDS011;36346;48.280;14.292;2023-03-01T00:26:24;26.62;;;26.10;;
50417;SDS011;36346;48.280;14.292;2023-03-01T00:28:52;26.54;;;26.18;;
50417;SDS011;36346;48.280;14.292;2023-03-01T00:31:23;26.23;;;25.74;;
50417;SDS011;36346;48.280;14.292;2023-03-01T00:33:54;26.58;;;26.19;;
50417;SDS011;36346;48.280;14.292;2023-03-01T00:36:25;27.27;;;26.82;;
50417;SDS011;36346;48.280;14.292;2023-03-01T00:38:57;26.17;;;25.90;;
50417;SDS011;36346;48.280;14.292;2023-03-01T00:41:26;26.24;;;25.93;;
50417;SDS011;36346;48.280;14.292;2023-03-01T00:43:54;26.99;;;26.72;;
50417;SDS011;36346;48.280;14.292;2023-03-01T00:46:24;26.98;;;26.77;;
50417;SDS011;36346;48.280;14.292;2023-03-01T00:48:54;26.91;;;26.49;;
50417;SDS011;36346;48.280;14.292;2023-03-01T00:51:23;27.29;;;26.90;;
50417;SDS011;36346;48.280;14.292;2023-03-01T00:53:54;27.91;;;27.47;;
50417;SDS011;36346;48.280;14.292;2023-03-01T00:56:25;27.55;;;27.11;;
50417;SDS011;36346;48.280;14.292;2023-03-01T00:58:53;27.13;;;26.74;;
50417;SDS011;36346;48.280;14.292;2023-03-01T01:01:22;27.62;;;27.24;;
50417;SDS011;36346;48.280;14.292;2023-03-01T01:03:59;26.89;;;26.48;;
50417;SDS011;36346;48.280;14.292;2023-03-01T01:06:30;28.19;;;27.80;;
50417;SDS011;36346;48.280;14.292;2023-03-01T01:09:00;27.09;;;26.81;;
50417;SDS011;36346;48.280;14.292;2023-03-01T01:11:29;28.09;;;27.80;;
50417;SDS011;36346;48.280;14.292;2023-03-01T01:13:57;28.29;;;27.89;;
50417;SDS011;36346;48.280;14.292;2023-03-01T01:16:26;28.48;;;27.94;;
50417;SDS011;36346;48.280;14.292;2023-03-01T01:18:56;28.08;;;27.70;;
50417;SDS011;36346;48.280;14.292;2023-03-01T01:21:24;29.84;;;29.37;;
50417;SDS011;36346;48.280;14.292;2023-03-01T01:23:53;29.03;;;28.59;;
50417;SDS011;36346;48.280;14.292;2023-03-01T01:26:23;29.43;;;28.90;;
50417;SDS011;36346;48.280;14.292;2023-03-01T01:28:53;28.88;;;28.40;;
50417;SDS011;36346;48.280;14.292;2023-03-01T01:31:22;29.09;;;28.68;;
50417;SDS011;36346;48.280;14.292;2023-03-01T01:33:52;30.11;;;29.58;;
50417;SDS011;36346;48.280;14.292;2023-03-01T01:36:20;29.87;;;29.52;;
50417;SDS011;36346;48.280;14.292;2023-03-01T01:38:50;30.30;;;29.89;;
50417;SDS011;36346;48.280;14.292;2023-03-01T01:41:19;29.93;;;29.62;;
50417;SDS011;36346;48.280;14.292;2023-03-01T01:43:49;30.75;;;30.14;;
50417;SDS011;36346;48.280;14.292;2023-03-01T01:46:37;30.15;;;29.80;;
50417;SDS011;36346;48.280;14.292;2023-03-01T01:49:16;30.60;;;30.04;;
50417;SDS011;36346;48.280;14.292;2023-03-01T01:57:37;31.50;;;30.86;;
50417;SDS011;36346;48.280;14.292;2023-03-01T02:02:44;31.00;;;30.43;;
50417;SDS011;36346;48.280;14.292;2023-03-01T02:06:03;30.97;;;30.33;;
50417;SDS011;36346;48.280;14.292;2023-03-01T02:08:14;31.08;;;30.61;;
50417;SDS011;36346;48.280;14.292;2023-03-01T02:10:46;31.19;;;30.83;;
50417;SDS011;36346;48.280;14.292;2023-03-01T02:13:16;30.84;;;30.39;;
50417;SDS011;36346;48.280;14.292;2023-03-01T02:15:44;31.15;;;30.70;;
50417;SDS011;36346;48.280;14.292;2023-03-01T02:18:12;31.46;;;30.92;;
50417;SDS011;36346;48.280;14.292;2023-03-01T02:23:37;31.46;;;30.88;;
50417;SDS011;36346;48.280;14.292;2023-03-01T02:26:11;31.90;;;31.46;;
50417;SDS011;36346;48.280;14.292;2023-03-01T02:29:04;31.75;;;31.22;;
50417;SDS011;36346;48.280;14.292;2023-03-01T02:31:33;31.92;;;31.43;;
50417;SDS011;36346;48.280;14.292;2023-03-01T02:34:13;31.20;;;30.70;;
50417;SDS011;36346;48.280;14.292;2023-03-01T02:36:45;31.62;;;31.15;;
50417;SDS011;36346;48.280;14.292;2023-03-01T02:39:26;32.12;;;31.57;;
50417;SDS011;36346;48.280;14.292;2023-03-01T02:42:03;31.81;;;31.37;;
50417;SDS011;36346;48.280;14.292;2023-03-01T02:44:32;32.50;;;32.00;;
50417;SDS011;36346;48.280;14.292;2023-03-01T02:47:00;32.40;;;31.76;;
50417;SDS011;36346;48.280;14.292;2023-03-01T02:49:31;31.80;;;31.20;;
50417;SDS011;36346;48.280;14.292;2023-03-01T02:57:41;31.76;;;31.37;;
50417;SDS011;36346;48.280;14.292;2023-03-01T03:00:12;32.49;;;32.05;;
50417;SDS011;36346;48.280;14.292;2023-03-01T03:02:50;32.41;;;31.74;;
50417;SDS011;36346;48.280;14.292;2023-03-01T03:05:23;31.97;;;31.55;;
50417;SDS011;36346;48.280;14.292;2023-03-01T03:07:59;31.80;;;31.32;;
50417;SDS011;36346;48.280;14.292;2023-03-01T03:10:32;32.89;;;32.36;;
50417;SDS011;36346;48.280;14.292;2023-03-01T03:13:04;32.06;;;31.25;;
50417;SDS011;36346;48.280;14.292;2023-03-01T03:15:38;31.95;;;31.60;;
50417;SDS011;36346;48.280;14.292;2023-03-01T03:18:11;32.10;;;31.59;;
50417;SDS011;36346;48.280;14.292;2023-03-01T03:20:41;31.66;;;31.31;;
50417;SDS011;36346;48.280;14.292;2023-03-01T03:23:11;32.44;;;32.02;;
50417;SDS011;36346;48.280;14.292;2023-03-01T03:25:39;32.40;;;31.90;;
50417;SDS011;36346;48.280;14.292;2023-03-01T03:28:07;31.83;;;31.34;;
50417;SDS011;36346;48.280;14.292;2023-03-01T03:30:38;32.36;;;31.81;;
50417;SDS011;36346;48.280;14.292;2023-03-01T03:33:07;32.69;;;32.04;;
50417;SDS011;36346;48.280;14.292;2023-03-01T03:35:41;32.32;;;31.78;;
50417;SDS011;36346;48.280;14.292;2023-03-01T03:38:11;32.12;;;31.49;;
50417;SDS011;36346;48.280;14.292;2023-03-01T03:40:45;32.49;;;31.93;;
50417;SDS011;36346;48.280;14.292;2023-03-01T03:43:16;31.95;;;31.59;;
50417;SDS011;36346;48.280;14.292;2023-03-01T03:45:49;31.77;;;31.32;;
50417;SDS011;36346;48.280;14.292;2023-03-01T03:48:18;32.02;;;31.40;;
50417;SDS011;36346;48.280;14.292;2023-03-01T03:50:47;30.75;;;30.33;;
50417;SDS011;36346;48.280;14.292;2023-03-01T03:53:17;30.63;;;30.20;;
50417;SDS011;36346;48.280;14.292;2023-03-01T03:55:45;31.27;;;30.75;;
50417;SDS011;36346;48.280;14.292;2023-03-01T03:58:17;31.88;;;31.24;;
50417;SDS011;36346;48.280;14.292;2023-03-01T04:00:48;30.93;;;30.49;;
50417;SDS011;36346;48.280;14.292;2023-03-01T04:03:19;31.69;;;31.12;;
50417;SDS011;36346;48.280;14.292;2023-03-01T04:05:47;31.89;;;31.18;;
50417;SDS011;36346;48.280;14.292;2023-03-01T04:08:18;30.83;;;30.56;;
50417;SDS011;36346;48.280;14.292;2023-03-01T04:10:49;31.11;;;30.64;;
50417;SDS011;36346;48.280;14.292;2023-03-01T04:13:20;31.14;;;30.66;;
50417;SDS011;36346;48.280;14.292;2023-03-01T04:15:49;30.95;;;30.13;;
50417;SDS011;36346;48.280;14.292;2023-03-01T04:18:19;31.31;;;30.81;;
50417;SDS011;36346;48.280;14.292;2023-03-01T04:20:48;30.94;;;30.47;;
50417;SDS011;36346;48.280;14.292;2023-03-01T04:23:17;30.90;;;30.41;;
50417;SDS011;36346;48.280;14.292;2023-03-01T04:28:25;30.91;;;30.48;;
50417;SDS011;36346;48.280;14.292;2023-03-01T04:30:57;31.55;;;30.93;;
50417;SDS011;36346;48.280;14.292;2023-03-01T04:33:26;31.48;;;30.97;;
50417;SDS011;36346;48.280;14.292;2023-03-01T04:35:54;31.93;;;31.40;;
50417;SDS011;36346;48.280;14.292;2023-03-01T04:38:22;30.98;;;30.57;;
50417;SDS011;36346;48.280;14.292;2023-03-01T04:40:49;31.41;;;30.98;;
50417;SDS011;36346;48.280;14.292;2023-03-01T04:43:17;31.48;;;30.98;;
50417;SDS011;36346;48.280;14.292;2023-03-01T04:45:45;32.43;;;31.81;;
50417;SDS011;36346;48.280;14.292;2023-03-01T04:48:13;32.52;;;31.97;;
50417;SDS011;36346;48.280;14.292;2023-03-01T04:50:41;32.60;;;32.00;;
50417;SDS011;36346;48.280;14.292;2023-03-01T04:53:09;32.61;;;32.04;;
50417;SDS011;36346;48.280;14.292;2023-03-01T04:55:37;33.16;;;32.51;;
50417;SDS011;36346;48.280;14.292;2023-03-01T04:58:05;33.01;;;32.65;;
50417;SDS011;36346;48.280;14.292;2023-03-01T05:00:33;33.15;;;32.72;;
50417;SDS011;36346;48.280;14.292;2023-03-01T05:03:01;33.27;;;32.75;;
50417;SDS011;36346;48.280;14.292;2023-03-01T05:05:33;33.31;;;32.75;;
50417;SDS011;36346;48.280;14.292;2023-03-01T05:08:04;32.44;;;31.98;;
50417;SDS011;36346;48.280;14.292;2023-03-01T05:10:35;33.39;;;32.80;;
50417;SDS011;36346;48.280;14.292;2023-03-01T05:13:04;33.55;;;32.99;;
50417;SDS011;36346;48.280;14.292;2023-03-01T05:15:31;32.56;;;31.96;;
50417;SDS011;36346;48.280;14.292;2023-03-01T05:18:00;31.77;;;31.47;;
50417;SDS011;36346;48.280;14.292;2023-03-01T05:20:28;32.43;;;32.06;;
50417;SDS011;36346;48.280;14.292;2023-03-01T05:22:58;34.01;;;33.43;;
50417;SDS011;36346;48.280;14.292;2023-03-01T05:25:27;33.63;;;32.98;;
50417;SDS011;36346;48.280;14.292;2023-03-01T05:28:01;34.10;;;33.45;;
50417;SDS011;36346;48.280;14.292;2023-03-01T05:30:33;34.00;;;33.37;;
50417;SDS011;36346;48.280;14.292;2023-03-01T05:33:01;33.91;;;33.44;;
50417;SDS011;36346;48.280;14.292;2023-03-01T05:35:32;34.13;;;33.59;;
50417;SDS011;36346;48.280;14.292;2023-03-01T05:38:00;35.40;;;34.85;;
50417;SDS011;36346;48.280;14.292;2023-03-01T05:40:28;33.71;;;33.21;;
50417;SDS011;36346;48.280;14.292;2023-03-01T05:42:56;34.24;;;33.57;;
50417;SDS011;36346;48.280;14.292;2023-03-01T05:45:25;34.05;;;33.37;;
50417;SDS011;36346;48.280;14.292;2023-03-01T05:47:54;33.44;;;32.82;;
50417;SDS011;36346;48.280;14.292;2023-03-01T05:50:29;34.40;;;33.87;;
50417;SDS011;36346;48.280;14.292;2023-03-01T05:53:02;35.00;;;34.46;;
50417;SDS011;36346;48.280;14.292;2023-03-01T05:55:35;33.96;;;33.49;;
50417;SDS011;36346;48.280;14.292;2023-03-01T05:58:05;34.43;;;33.88;;
50417;SDS011;36346;48.280;14.292;2023-03-01T06:00:35;35.20;;;34.62;;
50417;SDS011;36346;48.280;14.292;2023-03-01T06:03:03;35.49;;;34.86;;
50417;SDS011;36346;48.280;14.292;2023-03-01T06:05:31;35.93;;;35.22;;
50417;SDS011;36346;48.280;14.292;2023-03-01T06:07:59;37.03;;;36.24;;
50417;SDS011;36346;48.280;14.292;2023-03-01T06:10:27;36.57;;;35.97;;
50417;SDS011;36346;48.280;14.292;2023-03-01T06:12:56;36.69;;;36.14;;
50417;SDS011;36346;48.280;14.292;2023-03-01T06:15:24;36.42;;;35.71;;
50417;SDS011;36346;48.280;14.292;2023-03-01T06:17:53;36.48;;;35.90;;
50417;SDS011;36346;48.280;14.292;2023-03-01T06:20:27;36.13;;;35.70;;
50417;SDS011;36346;48.280;14.292;2023-03-01T06:22:56;36.70;;;36.21;;
50417;SDS011;36346;48.280;14.292;2023-03-01T06:25:24;37.06;;;36.46;;
50417;SDS011;36346;48.280;14.292;2023-03-01T06:27:54;35.98;;;35.26;;
50417;SDS011;36346;48.280;14.292;2023-03-01T06:30:23;36.45;;;35.95;;
50417;SDS011;36346;48.280;14.292;2023-03-01T06:32:52;36.18;;;35.65;;
50417;SDS011;36346;48.280;14.292;2023-03-01T06:35:20;36.98;;;36.62;;
50417;SDS011;36346;48.280;14.292;2023-03-01T06:37:48;35.99;;;35.38;;
50417;SDS011;36346;48.280;14.292;2023-03-01T06:40:16;36.41;;;35.69;;
50417;SDS011;36346;48.280;14.292;2023-03-01T06:42:47;37.25;;;36.53;;
50417;SDS011;36346;48.280;14.292;2023-03-01T06:45:18;37.32;;;36.65;;
50417;SDS011;36346;48.280;14.292;2023-03-01T06:47:47;37.50;;;36.72;;
50417;SDS011;36346;48.280;14.292;2023-03-01T06:50:15;36.79;;;36.24;;
50417;SDS011;36346;48.280;14.292;2023-03-01T06:52:45;37.13;;;36.44;;
50417;SDS011;36346;48.280;14.292;2023-03-01T06:55:12;37.22;;;36.55;;
50417;SDS011;36346;48.280;14.292;2023-03-01T06:57:41;37.13;;;36.45;;
50417;SDS011;36346;48.280;14.292;2023-03-01T07:00:09;37.28;;;36.44;;
50417;SDS011;36346;48.280;14.292;2023-03-01T07:02:37;36.25;;;35.69;;
50417;SDS011;36346;48.280;14.292;2023-03-01T07:05:06;35.59;;;34.96;;
50417;SDS011;36346;48.280;14.292;2023-03-01T07:07:34;35.96;;;35.26;;
50417;SDS011;36346;48.280;14.292;2023-03-01T07:10:02;36.43;;;35.77;;
50417;SDS011;36346;48.280;14.292;2023-03-01T07:12:30;37.61;;;36.86;;
50417;SDS011;36346;48.280;14.292;2023-03-01T07:14:58;37.36;;;36.50;;
50417;SDS011;36346;48.280;14.292;2023-03-01T07:17:26;36.81;;;35.95;;
50417;SDS011;36346;48.280;14.292;2023-03-01T07:19:54;37.06;;;36.43;;
50417;SDS011;36346;48.280;14.292;2023-03-01T07:22:22;38.49;;;37.77;;
50417;SDS011;36346;48.280;14.292;2023-03-01T07:24:50;39.10;;;38.55;;
50417;SDS011;36346;48.280;14.292;2023-03-01T07:27:17;39.72;;;39.14;;
50417;SDS011;36346;48.280;14.292;2023-03-01T07:29:45;40.36;;;39.72;;
50417;SDS011;36346;48.280;14.292;2023-03-01T07:32:13;40.98;;;40.47;;
50417;SDS011;36346;48.280;14.292;2023-03-01T07:34:41;41.34;;;40.67;;
50417;SDS011;36346;48.280;14.292;2023-03-01T07:37:09;41.19;;;40.50;;
50417;SDS011;36346;48.280;14.292;2023-03-01T07:39:37;41.63;;;40.80;;
50417;SDS011;36346;48.280;14.292;2023-03-01T07:42:05;41.91;;;41.13;;
50417;SDS011;36346;48.280;14.292;2023-03-01T07:44:33;43.32;;;42.61;;
50417;SDS011;36346;48.280;14.292;2023-03-01T07:47:02;44.86;;;44.07;;
50417;SDS011;36346;48.280;14.292;2023-03-01T07:49:31;44.85;;;44.14;;
50417;SDS011;36346;48.280;14.292;2023-03-01T07:51:59;44.15;;;43.43;;
50417;SDS011;36346;48.280;14.292;2023-03-01T07:54:27;44.97;;;43.99;;
50417;SDS011;36346;48.280;14.292;2023-03-01T07:56:56;45.01;;;44.10;;
50417;SDS011;36346;48.280;14.292;2023-03-01T07:59:24;44.71;;;43.82;;
50417;SDS011;36346;48.280;14.292;2023-03-01T08:01:56;44.60;;;43.93;;
50417;SDS011;36346;48.280;14.292;2023-03-01T08:04:25;44.64;;;43.94;;
50417;SDS011;36346;48.280;14.292;2023-03-01T08:06:54;45.30;;;44.78;;
50417;SDS011;36346;48.280;14.292;2023-03-01T08:09:22;45.32;;;44.67;;
50417;SDS011;36346;48.280;14.292;2023-03-01T08:11:50;46.44;;;45.58;;
50417;SDS011;36346;48.280;14.292;2023-03-01T08:14:18;43.88;;;43.13;;
50417;SDS011;36346;48.280;14.292;2023-03-01T08:16:48;44.33;;;43.53;;
50417;SDS011;36346;48.280;14.292;2023-03-01T08:19:17;44.17;;;43.24;;
50417;SDS011;36346;48.280;14.292;2023-03-01T08:21:45;45.37;;;44.47;;
50417;SDS011;36346;48.280;14.292;2023-03-01T08:24:13;43.78;;;43.14;;
50417;SDS011;36346;48.280;14.292;2023-03-01T08:26:41;44.26;;;43.52;;
50417;SDS011;36346;48.280;14.292;2023-03-01T08:29:09;43.62;;;42.96;;
50417;SDS011;36346;48.280;14.292;2023-03-01T08:31:38;44.62;;;43.76;;
50417;SDS011;36346;48.280;14.292;2023-03-01T08:34:09;43.34;;;42.39;;
50417;SDS011;36346;48.280;14.292;2023-03-01T08:36:41;44.31;;;43.43;;
50417;SDS011;36346;48.280;14.292;2023-03-01T08:39:12;43.97;;;43.10;;
50417;SDS011;36346;48.280;14.292;2023-03-01T08:41:42;42.21;;;41.34;;
50417;SDS011;36346;48.280;14.292;2023-03-01T08:44:12;40.63;;;39.87;;
50417;SDS011;36346;48.280;14.292;2023-03-01T08:46:41;38.09;;;37.61;;
50417;SDS011;36346;48.280;14.292;2023-03-01T08:49:13;34.15;;;33.77;;
50417;SDS011;36346;48.280;14.292;2023-03-01T08:51:43;34.51;;;34.08;;
50417;SDS011;36346;48.280;14.292;2023-03-01T08:54:13;34.76;;;34.29;;
50417;SDS011;36346;48.280;14.292;2023-03-01T08:56:43;32.31;;;31.72;;
50417;SDS011;36346;48.280;14.292;2023-03-01T08:59:12;31.59;;;31.05;;
50417;SDS011;36346;48.280;14.292;2023-03-01T09:01:44;31.34;;;30.80;;
50417;SDS011;36346;48.280;14.292;2023-03-01T09:04:13;31.14;;;30.70;;
50417;SDS011;36346;48.280;14.292;2023-03-01T09:06:43;31.13;;;30.63;;
50417;SDS011;36346;48.280;14.292;2023-03-01T09:09:15;30.38;;;29.76;;
50417;SDS011;36346;48.280;14.292;2023-03-01T09:11:44;30.08;;;29.62;;
50417;SDS011;36346;48.280;14.292;2023-03-01T09:14:13;29.59;;;29.30;;
50417;SDS011;36346;48.280;14.292;2023-03-01T09:16:42;30.27;;;29.79;;
50417;SDS011;36346;48.280;14.292;2023-03-01T09:19:10;31.09;;;30.65;;
50417;SDS011;36346;48.280;14.292;2023-03-01T09:21:38;30.78;;;30.39;;
50417;SDS011;36346;48.280;14.292;2023-03-01T09:24:14;30.03;;;29.41;;
50417;SDS011;36346;48.280;14.292;2023-03-01T09:26:42;30.47;;;30.03;;
50417;SDS011;36346;48.280;14.292;2023-03-01T09:29:15;30.27;;;29.87;;
50417;SDS011;36346;48.280;14.292;2023-03-01T09:31:44;30.13;;;29.62;;
50417;SDS011;36346;48.280;14.292;2023-03-01T09:34:12;28.75;;;28.37;;
50417;SDS011;36346;48.280;14.292;2023-03-01T09:36:43;28.84;;;28.45;;
50417;SDS011;36346;48.280;14.292;2023-03-01T09:39:11;29.79;;;29.46;;
50417;SDS011;36346;48.280;14.292;2023-03-01T09:47:09;28.45;;;28.10;;
50417;SDS011;36346;48.280;14.292;2023-03-01T09:50:09;29.55;;;29.18;;
50417;SDS011;36346;48.280;14.292;2023-03-01T09:53:00;30.87;;;30.29;;
50417;SDS011;36346;48.280;14.292;2023-03-01T09:55:36;29.28;;;28.91;;
50417;SDS011;36346;48.280;14.292;2023-03-01T10:06:27;24.77;;;24.47;;
50417;SDS011;36346;48.280;14.292;2023-03-01T10:11:36;25.28;;;24.90;;
50417;SDS011;36346;48.280;14.292;2023-03-01T10:14:09;23.87;;;23.49;;
50417;SDS011;36346;48.280;14.292;2023-03-01T10:19:47;21.09;;;20.77;;
50417;SDS011;36346;48.280;14.292;2023-03-01T10:22:19;20.57;;;20.25;;
50417;SDS011;36346;48.280;14.292;2023-03-01T10:24:51;19.79;;;19.45;;
50417;SDS011;36346;48.280;14.292;2023-03-01T10:27:24;19.86;;;19.59;;
50417;SDS011;36346;48.280;14.292;2023-03-01T10:32:48;20.01;;;19.77;;
50417;SDS011;36346;48.280;14.292;2023-03-01T10:35:23;21.28;;;21.14;;
50417;SDS011;36346;48.280;14.292;2023-03-01T10:38:05;20.50;;;20.20;;
50417;SDS011;36346;48.280;14.292;2023-03-01T10:40:49;20.33;;;20.00;;
50417;SDS011;36346;48.280;14.292;2023-03-01T10:43:21;19.86;;;19.52;;
50417;SDS011;36346;48.280;14.292;2023-03-01T10:45:49;18.46;;;18.27;;
50417;SDS011;36346;48.280;14.292;2023-03-01T10:48:19;18.25;;;18.02;;
50417;SDS011;36346;48.280;14.292;2023-03-01T10:51:12;19.21;;;19.06;;
50417;SDS011;36346;48.280;14.292;2023-03-01T10:53:44;18.49;;;18.24;;
50417;SDS011;36346;48.280;14.292;2023-03-01T10:56:16;19.11;;;18.83;;
50417;SDS011;36346;48.280;14.292;2023-03-01T10:58:56;19.14;;;18.91;;
50417;SDS011;36346;48.280;14.292;2023-03-01T11:01:33;20.01;;;19.79;;
50417;SDS011;36346;48.280;14.292;2023-03-01T11:06:34;19.50;;;19.43;;
50417;SDS011;36346;48.280;14.292;2023-03-01T11:11:42;19.82;;;19.50;;
50417;SDS011;36346;48.280;14.292;2023-03-01T11:19:40;17.79;;;17.54;;
50417;SDS011;36346;48.280;14.292;2023-03-01T11:22:18;17.72;;;17.39;;
50417;SDS011;36346;48.280;14.292;2023-03-01T11:24:51;17.17;;;16.87;;
50417;SDS011;36346;48.280;14.292;2023-03-01T11:27:38;17.55;;;17.37;;
50417;SDS011;36346;48.280;14.292;2023-03-01T11:35:47;16.68;;;16.40;;
50417;SDS011;36346;48.280;14.292;2023-03-01T11:38:26;16.44;;;16.12;;
50417;SDS011;36346;48.280;14.292;2023-03-01T11:56:52;15.28;;;15.13;;
50417;SDS011;36346;48.280;14.292;2023-03-01T12:02:32;15.78;;;15.62;;
50417;SDS011;36346;48.280;14.292;2023-03-01T12:06:33;15.59;;;15.37;;
50417;SDS011;36346;48.280;14.292;2023-03-01T12:09:01;15.56;;;15.43;;
50417;SDS011;36346;48.280;14.292;2023-03-01T12:17:12;16.01;;;15.88;;
50417;SDS011;36346;48.280;14.292;2023-03-01T12:19:50;15.91;;;15.70;;
50417;SDS011;36346;48.280;14.292;2023-03-01T12:22:43;15.99;;;15.94;;
50417;SDS011;36346;48.280;14.292;2023-03-01T12:39:19;14.87;;;14.75;;
50417;SDS011;36346;48.280;14.292;2023-03-01T12:50:38;14.15;;;14.13;;
50417;SDS011;36346;48.280;14.292;2023-03-01T12:53:29;14.42;;;14.25;;
50417;SDS011;36346;48.280;14.292;2023-03-01T12:56:05;15.39;;;15.26;;
50417;SDS011;36346;48.280;14.292;2023-03-01T12:58:49;15.49;;;15.39;;
50417;SDS011;36346;48.280;14.292;2023-03-01T13:07:25;16.05;;;15.93;;
50417;SDS011;36346;48.280;14.292;2023-03-01T13:10:07;15.72;;;15.55;;
50417;SDS011;36346;48.280;14.292;2023-03-01T13:17:55;16.02;;;15.90;;
50417;SDS011;36346;48.280;14.292;2023-03-01T13:23:44;16.68;;;16.59;;
50417;SDS011;36346;48.280;14.292;2023-03-01T13:31:05;19.07;;;18.86;;
50417;SDS011;36346;48.280;14.292;2023-03-01T13:33:39;20.05;;;19.91;;
50417;SDS011;36346;48.280;14.292;2023-03-01T13:36:09;20.13;;;19.93;;
50417;SDS011;36346;48.280;14.292;2023-03-01T13:41:52;16.83;;;16.75;;
50417;SDS011;36346;48.280;14.292;2023-03-01T13:46:56;18.68;;;18.53;;
50417;SDS011;36346;48.280;14.292;2023-03-01T13:49:28;17.53;;;17.45;;
50417;SDS011;36346;48.280;14.292;2023-03-01T13:55:00;17.49;;;17.33;;
50417;SDS011;36346;48.280;14.292;2023-03-01T13:57:35;18.75;;;18.53;;
50417;SDS011;36346;48.280;14.292;2023-03-01T14:00:07;19.99;;;19.76;;
50417;SDS011;36346;48.280;14.292;2023-03-01T14:05:33;25.94;;;25.32;;
50417;SDS011;36346;48.280;14.292;2023-03-01T14:08:04;22.44;;;22.19;;
50417;SDS011;36346;48.280;14.292;2023-03-01T14:11:00;23.23;;;23.09;;
50417;SDS011;36346;48.280;14.292;2023-03-01T14:16:19;20.95;;;20.46;;
50417;SDS011;36346;48.280;14.292;2023-03-01T14:21:36;18.08;;;17.95;;
50417;SDS011;36346;48.280;14.292;2023-03-01T14:24:04;17.68;;;17.51;;
50417;SDS011;36346;48.280;14.292;2023-03-01T14:26:32;17.45;;;17.38;;
50417;SDS011;36346;48.280;14.292;2023-03-01T14:29:03;17.27;;;17.14;;
50417;SDS011;36346;48.280;14.292;2023-03-01T14:31:36;17.10;;;16.98;;
50417;SDS011;36346;48.280;14.292;2023-03-01T14:34:23;16.91;;;16.74;;
50417;SDS011;36346;48.280;14.292;2023-03-01T14:36:52;17.11;;;16.94;;
50417;SDS011;36346;48.280;14.292;2023-03-01T14:39:22;16.68;;;16.51;;
50417;SDS011;36346;48.280;14.292;2023-03-01T14:41:53;15.58;;;15.50;;
50417;SDS011;36346;48.280;14.292;2023-03-01T14:44:22;15.79;;;15.74;;
50417;SDS011;36346;48.280;14.292;2023-03-01T14:46:52;17.47;;;17.34;;
50417;SDS011;36346;48.280;14.292;2023-03-01T14:49:24;17.45;;;17.30;;
50417;SDS011;36346;48.280;14.292;2023-03-01T14:51:57;16.24;;;16.16;;
50417;SDS011;36346;48.280;14.292;2023-03-01T14:57:03;15.68;;;15.63;;
50417;SDS011;36346;48.280;14.292;2023-03-01T14:59:33;17.22;;;17.05;;
50417;SDS011;36346;48.280;14.292;2023-03-01T15:02:01;16.31;;;16.18;;
50417;SDS011;36346;48.280;14.292;2023-03-01T15:04:31;16.67;;;16.52;;
50417;SDS011;36346;48.280;14.292;2023-03-01T15:07:01;16.97;;;16.81;;
50417;SDS011;36346;48.280;14.292;2023-03-01T15:09:33;17.43;;;17.32;;
50417;SDS011;36346;48.280;14.292;2023-03-01T15:17:54;17.19;;;17.02;;
50417;SDS011;36346;48.280;14.292;2023-03-01T15:20:28;16.02;;;15.92;;
50417;SDS011;36346;48.280;14.292;2023-03-01T15:22:59;15.56;;;15.50;;
50417;SDS011;36346;48.280;14.292;2023-03-01T15:25:29;15.86;;;15.74;;
50417;SDS011;36346;48.280;14.292;2023-03-01T15:27:59;16.61;;;16.43;;
50417;SDS011;36346;48.280;14.292;2023-03-01T15:30:32;16.53;;;16.48;;
50417;SDS011;36346;48.280;14.292;2023-03-01T15:33:46;16.44;;;16.40;;
50417;SDS011;36346;48.280;14.292;2023-03-01T15:35:57;17.17;;;17.06;;
50417;SDS011;36346;48.280;14.292;2023-03-01T15:38:35;17.34;;;17.22;;
50417;SDS011;36346;48.280;14.292;2023-03-01T15:41:22;17.79;;;17.59;;
50417;SDS011;36346;48.280;14.292;2023-03-01T15:43:50;17.75;;;17.65;;
50417;SDS011;36346;48.280;14.292;2023-03-01T15:48:56;18.28;;;18.06;;
50417;SDS011;36346;48.280;14.292;2023-03-01T15:53:59;17.56;;;17.47;;
50417;SDS011;36346;48.280;14.292;2023-03-01T15:56:39;17.27;;;17.11;;
50417;SDS011;36346;48.280;14.292;2023-03-01T15:59:08;17.84;;;17.64;;
50417;SDS011;36346;48.280;14.292;2023-03-01T16:01:42;17.12;;;16.96;;
50417;SDS011;36346;48.280;14.292;2023-03-01T16:04:11;18.01;;;17.93;;
50417;SDS011;36346;48.280;14.292;2023-03-01T16:06:48;20.26;;;20.12;;
50417;SDS011;36346;48.280;14.292;2023-03-01T16:09:24;21.93;;;21.73;;
50417;SDS011;36346;48.280;14.292;2023-03-01T16:11:53;22.64;;;22.40;;
50417;SDS011;36346;48.280;14.292;2023-03-01T16:14:21;22.21;;;22.01;;
50417;SDS011;36346;48.280;14.292;2023-03-01T16:16:49;23.60;;;23.26;;
50417;SDS011;36346;48.280;14.292;2023-03-01T16:19:18;25.77;;;25.29;;
50417;SDS011;36346;48.280;14.292;2023-03-01T16:21:45;24.81;;;24.53;;
50417;SDS011;36346;48.280;14.292;2023-03-01T16:24:16;25.41;;;25.08;;
50417;SDS011;36346;48.280;14.292;2023-03-01T16:26:44;23.75;;;23.47;;
50417;SDS011;36346;48.280;14.292;2023-03-01T16:29:12;24.23;;;23.96;;
50417;SDS011;36346;48.280;14.292;2023-03-01T16:31:40;25.12;;;24.82;;
50417;SDS011;36346;48.280;14.292;2023-03-01T16:34:08;24.24;;;23.96;;
50417;SDS011;36346;48.280;14.292;2023-03-01T16:36:37;23.95;;;23.69;;
50417;SDS011;36346;48.280;14.292;2023-03-01T16:39:06;23.87;;;23.52;;
50417;SDS011;36346;48.280;14.292;2023-03-01T16:41:35;25.12;;;24.82;;
50417;SDS011;36346;48.280;14.292;2023-03-01T16:44:03;27.31;;;26.89;;
50417;SDS011;36346;48.280;14.292;2023-03-01T16:46:30;27.27;;;26.82;;
50417;SDS011;36346;48.280;14.292;2023-03-01T16:48:58;26.84;;;26.37;;
50417;SDS011;36346;48.280;14.292;2023-03-01T16:51:26;27.43;;;27.06;;
50417;SDS011;36346;48.280;14.292;2023-03-01T16:53:54;28.29;;;27.75;;
50417;SDS011;36346;48.280;14.292;2023-03-01T16:56:22;27.18;;;26.77;;
50417;SDS011;36346;48.280;14.292;2023-03-01T16:58:50;26.78;;;26.32;;
50417;SDS011;36346;48.280;14.292;2023-03-01T17:01:18;28.55;;;28.03;;
50417;SDS011;36346;48.280;14.292;2023-03-01T17:03:51;28.04;;;27.67;;
50417;SDS011;36346;48.280;14.292;2023-03-01T17:06:20;29.88;;;29.53;;
50417;SDS011;36346;48.280;14.292;2023-03-01T17:08:49;29.02;;;28.62;;